Joel, Wisconsin
Current Conditions -  °F | °C
As of 7:15 AM on Thursday 27 Nov 2014 (Local Time) from KOEO Reporting Station
Clear Clear  
Wind Chill: -14°   Ceiling: Unl
Heat Index: -2°   Visibility: 10mi
Dew Point: -6°   Wind: 6mph
Humidity: 82%   Direction: 340°NNW
Pressure: 30.51"   Gusts: NA
Location:  45.3559°N, 92.3527°W
Report Text: KOEO 271315Z AUTO 34005KT 10SM CLR M19/M21 A3051 RMK AO2 T11891213
Loading
Personal Weather Stations






























Interactive Weather Map New forecast layout! Learn more

10-Day Weather Forecast

Advertisements
Track Severe Weather on mobile